Time;durP1;ratioP1;P1;durP2;ratioP2;P2;SDS_P1;SDS_P2;PMS_P1;PMS_P2;Temp;Humidity;BMP_temperature;BMP_pressure;BME280_temperature;BME280_humidity;BME280_pressure;Samples;Min_cycle;Max_cycle;Signal;HPM_P1;HPM_P2
2023/04/14 00:00:16;;;;;;;;;;;6.10;99.90;;;;;;5009417;28;20056;-60
2023/04/14 00:02:41;;;;;;;;;;;6.10;99.90;;;;;;5001458;28;19948;-61
2023/04/14 00:05:07;;;;;;;;;;;6.00;99.90;;;;;;5008699;28;20002;-60
2023/04/14 00:07:32;;;;;;;;;;;5.90;99.90;;;;;;5004714;28;19955;-59
2023/04/14 00:09:58;;;;;;;;;;;5.80;99.90;;;;;;5006650;28;19922;-61
2023/04/14 00:12:23;;;;;;;;;;;5.60;99.90;;;;;;5006889;28;19925;-61
2023/04/14 00:14:49;;;;;;;;;;;5.50;99.90;;;;;;5007444;28;19913;-59
2023/04/14 00:17:15;;;;;;;;;;;5.30;99.90;;;;;;5010540;28;20380;-57
2023/04/14 00:19:40;;;;;;;;;;;5.20;99.90;;;;;;5005452;28;19922;-62
2023/04/14 00:22:05;;;;;;;;;;;5.20;99.90;;;;;;5008467;28;20028;-59
2023/04/14 00:24:31;;;;;;;;;;;5.20;99.90;;;;;;5010807;28;19972;-59
2023/04/14 00:26:56;;;;;;;;;;;5.20;99.90;;;;;;5008278;28;19924;-59
2023/04/14 00:29:22;;;;;;;;;;;5.10;99.90;;;;;;5008823;28;20330;-58
2023/04/14 00:31:47;;;;;;;;;;;5.10;99.90;;;;;;5008486;28;20354;-57
2023/04/14 00:34:13;;;;;;;;;;;5.20;99.90;;;;;;5009989;28;19967;-61
2023/04/14 00:36:38;;;;;;;;;;;5.20;99.90;;;;;;5006881;28;20004;-62
2023/04/14 00:39:04;;;;;;;;;;;5.30;99.90;;;;;;5005812;28;19913;-60
2023/04/14 00:41:33;;;;;;;;;;;5.30;99.90;;;;;;5008798;28;19917;-61
2023/04/14 00:44:00;;;;;;;;;;;5.40;99.90;;;;;;5005965;28;19967;-58
2023/04/14 00:46:26;;;;;;;;;;;5.20;99.90;;;;;;5007236;28;20313;-60
2023/04/14 00:48:51;;;;;;;;;;;4.90;99.90;;;;;;5001302;28;19914;-60
2023/04/14 00:51:17;;;;;;;;;;;4.60;99.90;;;;;;5008502;28;19918;-58
2023/04/14 00:53:42;;;;;;;;;;;4.70;99.90;;;;;;5004423;28;19913;-61
2023/04/14 00:56:08;;;;;;;;;;;4.60;99.90;;;;;;5009636;28;19917;-58
2023/04/14 00:58:34;;;;;;;;;;;4.60;99.90;;;;;;5012119;28;19996;-60
2023/04/14 01:01:00;;;;;;;;;;;4.60;99.90;;;;;;5010619;28;19914;-59
2023/04/14 01:03:26;;;;;;;;;;;4.70;99.90;;;;;;5003515;28;19924;-58
2023/04/14 01:05:51;;;;;;;;;;;4.80;99.90;;;;;;5009116;28;19921;-59
2023/04/14 01:08:17;;;;;;;;;;;4.90;99.90;;;;;;5003707;28;20343;-58
2023/04/14 01:10:50;;;;;;;;;;;4.90;99.90;;;;;;5010910;28;19924;-58
2023/04/14 01:13:16;;;;;;;;;;;4.90;99.90;;;;;;5001563;28;19917;-58
2023/04/14 01:15:46;;;;;;;;;;;4.80;99.90;;;;;;5008703;28;19967;-58
2023/04/14 01:18:31;;;;;;;;;;;4.70;99.90;;;;;;5004571;28;19917;-59
2023/04/14 01:21:03;;;;;;;;;;;4.50;99.90;;;;;;5003757;28;20292;-56
2023/04/14 01:23:38;;;;;;;;;;;4.40;99.90;;;;;;5004086;28;19914;-60
2023/04/14 01:26:09;;;;;;;;;;;4.30;99.90;;;;;;5006471;28;19947;-61
2023/04/14 01:28:54;;;;;;;;;;;4.30;99.90;;;;;;5007818;28;19921;-59
2023/04/14 01:31:20;;;;;;;;;;;4.20;99.90;;;;;;5009131;28;21820;-57
2023/04/14 01:33:48;;;;;;;;;;;4.20;99.90;;;;;;5010618;28;19968;-60
2023/04/14 01:36:17;;;;;;;;;;;4.30;99.90;;;;;;5009160;28;19914;-58
2023/04/14 01:38:43;;;;;;;;;;;4.40;99.90;;;;;;5009400;28;19921;-59
2023/04/14 01:41:11;;;;;;;;;;;4.40;99.90;;;;;;5010793;28;19917;-55
2023/04/14 01:43:41;;;;;;;;;;;4.40;99.90;;;;;;5011929;28;19914;-58
2023/04/14 01:46:12;;;;;;;;;;;4.50;99.90;;;;;;5007327;28;19995;-57
2023/04/14 01:48:39;;;;;;;;;;;4.50;99.90;;;;;;5011932;28;19913;-60
2023/04/14 01:51:06;;;;;;;;;;;4.50;99.90;;;;;;5007404;28;19921;-57
2023/04/14 01:53:32;;;;;;;;;;;4.50;99.90;;;;;;5011325;28;19920;-60
2023/04/14 01:55:59;;;;;;;;;;;4.50;99.90;;;;;;5008209;28;20505;-60
2023/04/14 01:58:27;;;;;;;;;;;4.40;99.90;;;;;;5013333;28;19921;-59
2023/04/14 02:00:53;;;;;;;;;;;4.40;99.90;;;;;;5011828;28;20276;-59
2023/04/14 02:03:19;;;;;;;;;;;4.20;99.90;;;;;;5010798;28;19940;-57
2023/04/14 02:05:46;;;;;;;;;;;4.10;99.90;;;;;;5009291;28;19985;-61
2023/04/14 02:08:12;;;;;;;;;;;4.10;99.90;;;;;;5009022;28;19936;-58
2023/04/14 02:10:43;;;;;;;;;;;4.10;99.90;;;;;;5010956;28;19957;-58
2023/04/14 02:13:09;;;;;;;;;;;4.20;99.90;;;;;;5012192;28;19914;-58
2023/04/14 02:15:35;;;;;;;;;;;4.20;99.90;;;;;;5009200;28;20469;-60
2023/04/14 02:18:03;;;;;;;;;;;4.20;99.90;;;;;;5004795;28;20015;-60
2023/04/14 02:20:28;;;;;;;;;;;4.40;99.90;;;;;;5006303;28;20012;-58
2023/04/14 02:22:54;;;;;;;;;;;4.30;99.90;;;;;;5011406;28;19996;-57
2023/04/14 02:25:22;;;;;;;;;;;4.30;99.90;;;;;;5009760;28;19917;-59
2023/04/14 02:27:51;;;;;;;;;;;4.30;99.90;;;;;;5009180;28;20406;-57
2023/04/14 02:30:21;;;;;;;;;;;4.20;99.90;;;;;;5010011;28;19913;-59
2023/04/14 02:32:49;;;;;;;;;;;4.30;99.90;;;;;;5009798;28;20012;-57
2023/04/14 02:35:20;;;;;;;;;;;4.30;99.90;;;;;;5009177;28;20001;-58
2023/04/14 02:37:52;;;;;;;;;;;4.20;99.90;;;;;;5006589;28;20027;-58
2023/04/14 02:40:24;;;;;;;;;;;4.20;99.90;;;;;;5009210;28;20011;-58
2023/04/14 02:42:56;;;;;;;;;;;4.10;99.90;;;;;;5007643;28;19914;-60
2023/04/14 02:45:23;;;;;;;;;;;4.00;99.90;;;;;;5010982;28;19959;-59
2023/04/14 02:47:51;;;;;;;;;;;4.00;99.90;;;;;;5006905;28;19913;-60
2023/04/14 02:50:18;;;;;;;;;;;3.90;99.90;;;;;;5006213;28;20335;-59
2023/04/14 02:52:46;;;;;;;;;;;3.90;99.90;;;;;;5003757;28;19956;-59
2023/04/14 02:55:12;;;;;;;;;;;3.80;99.90;;;;;;5008255;28;20025;-58
2023/04/14 02:57:38;;;;;;;;;;;3.90;99.90;;;;;;5007370;28;20399;-60
2023/04/14 03:00:04;;;;;;;;;;;3.90;99.90;;;;;;5009910;28;19959;-59
2023/04/14 03:02:31;;;;;;;;;;;3.90;99.90;;;;;;5002413;28;19975;-58
2023/04/14 03:04:56;;;;;;;;;;;3.90;99.90;;;;;;5009266;28;19918;-60
2023/04/14 03:07:23;;;;;;;;;;;3.80;99.90;;;;;;5007591;28;20004;-59
2023/04/14 03:09:49;;;;;;;;;;;3.80;99.90;;;;;;5004673;28;20040;-57
2023/04/14 03:12:15;;;;;;;;;;;3.70;99.90;;;;;;5002723;28;19918;-57
2023/04/14 03:14:41;;;;;;;;;;;3.70;99.90;;;;;;5010976;28;19910;-56
2023/04/14 03:17:08;;;;;;;;;;;3.60;99.90;;;;;;5006541;28;20299;-52
2023/04/14 03:19:33;;;;;;;;;;;3.60;99.90;;;;;;5008199;28;19913;-58
2023/04/14 03:21:59;;;;;;;;;;;3.60;99.90;;;;;;5009033;28;20545;-57
2023/04/14 03:24:27;;;;;;;;;;;3.50;99.90;;;;;;5006781;28;19918;-57
2023/04/14 03:26:57;;;;;;;;;;;3.50;99.90;;;;;;5009436;28;20339;-60
2023/04/14 03:29:26;;;;;;;;;;;3.40;99.90;;;;;;5007930;28;19968;-60
2023/04/14 03:31:54;;;;;;;;;;;3.50;99.90;;;;;;5008389;28;20004;-60
2023/04/14 03:34:20;;;;;;;;;;;3.50;99.90;;;;;;5011137;28;20008;-60
2023/04/14 03:36:47;;;;;;;;;;;3.50;99.90;;;;;;5007878;28;20001;-60
2023/04/14 03:39:14;;;;;;;;;;;3.40;99.90;;;;;;5010338;28;19914;-58
2023/04/14 03:41:46;;;;;;;;;;;3.50;99.90;;;;;;5007090;28;19933;-59
2023/04/14 03:44:14;;;;;;;;;;;3.50;99.90;;;;;;5009035;28;19997;-59
2023/04/14 03:46:40;;;;;;;;;;;3.40;99.90;;;;;;5010151;28;19919;-60
2023/04/14 03:49:09;;;;;;;;;;;3.40;99.90;;;;;;5006313;28;20004;-60
2023/04/14 03:51:37;;;;;;;;;;;3.20;99.90;;;;;;5005869;28;19968;-60
2023/04/14 03:54:04;;;;;;;;;;;3.10;99.90;;;;;;5005533;28;20025;-57
2023/04/14 03:56:31;;;;;;;;;;;3.10;99.90;;;;;;5010655;28;19920;-58
2023/04/14 03:58:57;;;;;;;;;;;3.10;99.90;;;;;;5011537;28;19972;-58
2023/04/14 04:01:24;;;;;;;;;;;3.10;99.90;;;;;;5007055;28;19960;-59
2023/04/14 04:03:51;;;;;;;;;;;3.10;99.90;;;;;;5006118;28;19962;-56
2023/04/14 04:06:17;;;;;;;;;;;3.10;99.90;;;;;;5006001;28;20391;-58
2023/04/14 04:08:43;;;;;;;;;;;3.00;99.90;;;;;;5002745;28;19914;-58
2023/04/14 04:11:10;;;;;;;;;;;3.00;99.90;;;;;;5006382;28;20663;-59
2023/04/14 04:13:36;;;;;;;;;;;3.00;99.90;;;;;;5004280;28;19925;-58
2023/04/14 04:16:02;;;;;;;;;;;2.90;99.90;;;;;;5006964;28;19914;-60
2023/04/14 04:18:29;;;;;;;;;;;2.90;99.90;;;;;;5012283;28;19913;-60
2023/04/14 04:20:57;;;;;;;;;;;2.90;99.90;;;;;;5009156;28;19953;-58
2023/04/14 04:23:23;;;;;;;;;;;2.90;99.90;;;;;;5006719;28;20016;-58
2023/04/14 04:25:49;;;;;;;;;;;3.00;99.90;;;;;;5003600;28;19914;-57
2023/04/14 04:28:15;;;;;;;;;;;3.10;99.90;;;;;;5005628;28;19920;-59
2023/04/14 04:30:42;;;;;;;;;;;3.10;99.90;;;;;;5007340;28;19917;-59
2023/04/14 04:33:09;;;;;;;;;;;3.10;99.90;;;;;;5007498;28;19914;-55
2023/04/14 04:35:35;;;;;;;;;;;3.10;99.90;;;;;;5008263;28;20292;-57
2023/04/14 04:38:00;;;;;;;;;;;3.10;99.90;;;;;;5008579;28;19917;-58
2023/04/14 04:40:26;;;;;;;;;;;3.10;99.90;;;;;;5005293;28;19913;-57
2023/04/14 04:42:51;;;;;;;;;;;3.00;99.90;;;;;;5005513;28;20279;-60
2023/04/14 04:45:22;;;;;;;;;;;3.00;99.90;;;;;;5008156;28;19920;-60
2023/04/14 04:47:47;;;;;;;;;;;3.00;99.90;;;;;;5011229;28;20315;-60
2023/04/14 04:50:13;;;;;;;;;;;3.00;99.90;;;;;;5007706;28;19959;-57
2023/04/14 04:52:38;;;;;;;;;;;3.10;99.90;;;;;;5006485;28;20454;-56
2023/04/14 04:55:04;;;;;;;;;;;3.10;99.90;;;;;;5003658;28;19921;-58
2023/04/14 04:57:30;;;;;;;;;;;3.00;99.90;;;;;;5008501;28;19914;-58
2023/04/14 04:59:55;;;;;;;;;;;3.10;99.90;;;;;;5008103;28;19925;-59
2023/04/14 05:02:21;;;;;;;;;;;3.10;99.90;;;;;;5009395;28;19920;-55
2023/04/14 05:04:47;;;;;;;;;;;3.00;99.90;;;;;;5000030;28;19925;-59
2023/04/14 05:07:12;;;;;;;;;;;3.10;99.90;;;;;;5007696;28;19967;-60
2023/04/14 05:09:38;;;;;;;;;;;3.10;99.90;;;;;;5009133;28;19996;-59
2023/04/14 05:12:03;;;;;;;;;;;3.10;99.90;;;;;;5007964;28;19961;-60
2023/04/14 05:14:29;;;;;;;;;;;3.10;99.90;;;;;;5007506;28;19914;-59
2023/04/14 05:16:55;;;;;;;;;;;3.10;99.90;;;;;;5007797;28;19921;-59
2023/04/14 05:19:21;;;;;;;;;;;3.20;99.90;;;;;;5007035;28;19913;-61
2023/04/14 05:21:46;;;;;;;;;;;3.20;99.90;;;;;;5005897;28;19929;-60
2023/04/14 05:24:12;;;;;;;;;;;3.20;99.90;;;;;;5002832;28;19968;-56
2023/04/14 05:26:37;;;;;;;;;;;3.20;99.90;;;;;;5008358;28;20295;-60
2023/04/14 05:29:03;;;;;;;;;;;3.00;99.90;;;;;;5007581;28;19920;-58
2023/04/14 05:31:28;;;;;;;;;;;3.00;99.90;;;;;;5001185;28;19917;-54
2023/04/14 05:33:54;;;;;;;;;;;3.00;99.90;;;;;;5009339;28;19929;-59
2023/04/14 05:36:19;;;;;;;;;;;3.00;99.90;;;;;;5006720;28;19913;-56
2023/04/14 05:38:44;;;;;;;;;;;3.10;99.90;;;;;;5009668;28;20000;-58
2023/04/14 05:41:10;;;;;;;;;;;3.10;99.90;;;;;;5005703;28;19913;-58
2023/04/14 05:43:36;;;;;;;;;;;3.30;99.90;;;;;;4997598;28;19940;-59
2023/04/14 05:46:01;;;;;;;;;;;3.40;99.90;;;;;;5009122;28;19922;-58
2023/04/14 05:48:29;;;;;;;;;;;3.50;99.90;;;;;;5006651;28;19921;-60
2023/04/14 05:50:55;;;;;;;;;;;3.60;99.90;;;;;;5002369;28;19960;-60
2023/04/14 05:53:20;;;;;;;;;;;3.80;99.90;;;;;;5008090;28;19956;-60
2023/04/14 05:55:47;;;;;;;;;;;3.90;99.90;;;;;;5004703;28;19918;-60
2023/04/14 05:58:13;;;;;;;;;;;4.00;99.90;;;;;;5005907;28;19917;-60
2023/04/14 06:00:39;;;;;;;;;;;4.10;99.90;;;;;;5007121;28;19961;-58
2023/04/14 06:03:04;;;;;;;;;;;4.20;99.90;;;;;;5004389;28;19992;-58
2023/04/14 06:05:30;;;;;;;;;;;4.30;99.90;;;;;;5007121;28;19914;-59
2023/04/14 06:07:55;;;;;;;;;;;4.30;99.90;;;;;;5008333;28;19914;-61
2023/04/14 06:10:21;;;;;;;;;;;4.40;99.90;;;;;;5007923;28;20376;-57
2023/04/14 06:12:46;;;;;;;;;;;4.50;99.90;;;;;;5009530;28;20004;-55
2023/04/14 06:15:11;;;;;;;;;;;4.60;99.90;;;;;;5012100;28;19917;-60
2023/04/14 06:17:38;;;;;;;;;;;4.70;99.90;;;;;;5014219;28;19956;-59
2023/04/14 06:20:04;;;;;;;;;;;4.70;99.90;;;;;;5012593;28;19910;-59
2023/04/14 06:22:30;;;;;;;;;;;4.80;99.90;;;;;;5011759;28;20395;-58
2023/04/14 06:24:58;;;;;;;;;;;5.00;99.90;;;;;;5004294;28;20009;-60
2023/04/14 06:27:24;;;;;;;;;;;5.00;99.90;;;;;;5009789;28;19921;-60
2023/04/14 06:29:50;;;;;;;;;;;5.10;99.90;;;;;;5008626;28;19917;-58
2023/04/14 06:32:16;;;;;;;;;;;5.20;99.90;;;;;;5007843;28;20458;-60
2023/04/14 06:34:42;;;;;;;;;;;5.30;99.90;;;;;;5006521;28;20000;-59
2023/04/14 06:37:07;;;;;;;;;;;5.30;99.90;;;;;;5006832;28;19913;-59
2023/04/14 06:39:32;;;;;;;;;;;5.40;99.90;;;;;;5005726;28;20339;-58
2023/04/14 06:41:58;;;;;;;;;;;5.50;99.90;;;;;;5007700;28;20295;-60
2023/04/14 06:44:23;;;;;;;;;;;5.60;99.90;;;;;;5008734;28;20288;-60
2023/04/14 06:46:49;;;;;;;;;;;5.60;99.90;;;;;;5008588;28;19914;-57
2023/04/14 06:49:16;;;;;;;;;;;5.70;99.90;;;;;;5008546;28;19914;-55
2023/04/14 06:51:41;;;;;;;;;;;5.80;99.90;;;;;;5007710;28;19918;-58
2023/04/14 06:54:07;;;;;;;;;;;5.90;99.90;;;;;;5003524;28;19960;-58
2023/04/14 06:56:32;;;;;;;;;;;5.90;99.90;;;;;;5010057;28;19971;-57
2023/04/14 06:58:58;;;;;;;;;;;6.00;99.90;;;;;;5007380;28;19913;-58
2023/04/14 07:01:23;;;;;;;;;;;6.10;99.90;;;;;;5006365;28;19913;-58
2023/04/14 07:03:48;;;;;;;;;;;6.20;99.90;;;;;;5003532;28;19914;-58
2023/04/14 07:06:15;;;;;;;;;;;6.30;99.90;;;;;;5003199;28;19913;-58
2023/04/14 07:08:41;;;;;;;;;;;6.30;99.90;;;;;;5006929;28;19937;-61
2023/04/14 07:11:08;;;;;;;;;;;6.40;99.90;;;;;;5008109;28;19917;-60
2023/04/14 07:13:35;;;;;;;;;;;6.50;99.90;;;;;;5010779;28;19917;-58
2023/04/14 07:16:01;;;;;;;;;;;6.60;99.90;;;;;;5005392;28;19914;-59
2023/04/14 07:18:27;;;;;;;;;;;6.60;99.90;;;;;;5007443;28;20612;-58
2023/04/14 07:20:55;;;;;;;;;;;6.60;99.90;;;;;;5009375;28;20004;-59
2023/04/14 07:23:21;;;;;;;;;;;6.70;99.90;;;;;;5007029;28;19914;-60
2023/04/14 07:25:51;;;;;;;;;;;6.70;99.90;;;;;;5001571;28;19940;-58
2023/04/14 07:28:20;;;;;;;;;;;6.80;99.90;;;;;;5008078;28;19914;-61
2023/04/14 07:30:47;;;;;;;;;;;7.00;99.90;;;;;;5005628;28;20640;-61
2023/04/14 07:33:13;;;;;;;;;;;7.00;99.90;;;;;;5008529;28;19964;-57
2023/04/14 07:35:38;;;;;;;;;;;7.20;99.90;;;;;;5006276;28;19914;-59
2023/04/14 07:38:04;;;;;;;;;;;7.30;99.90;;;;;;5010194;28;19922;-60
2023/04/14 07:40:29;;;;;;;;;;;7.30;99.90;;;;;;5007797;28;19922;-56
2023/04/14 07:42:56;;;;;;;;;;;7.40;99.90;;;;;;5008394;28;19996;-60
2023/04/14 07:45:22;;;;;;;;;;;7.60;99.90;;;;;;5006568;28;19917;-59
2023/04/14 07:47:47;;;;;;;;;;;7.70;99.90;;;;;;5007783;28;19913;-58
2023/04/14 07:50:13;;;;;;;;;;;7.80;99.90;;;;;;5008134;28;19925;-57
2023/04/14 07:52:39;;;;;;;;;;;7.90;99.90;;;;;;5009004;28;19918;-61
2023/04/14 07:55:05;;;;;;;;;;;8.00;99.90;;;;;;5006522;28;19985;-58
2023/04/14 07:57:32;;;;;;;;;;;8.20;99.90;;;;;;5009292;28;19920;-59
2023/04/14 07:59:57;;;;;;;;;;;8.30;99.90;;;;;;5009771;28;19913;-63
2023/04/14 08:02:23;;;;;;;;;;;8.40;99.90;;;;;;5008006;28;19918;-60
2023/04/14 08:04:48;;;;;;;;;;;8.40;99.90;;;;;;5005710;28;19949;-61
2023/04/14 08:07:14;;;;;;;;;;;8.50;99.90;;;;;;5006141;28;19973;-61
2023/04/14 08:09:40;;;;;;;;;;;8.70;99.90;;;;;;5003938;28;19914;-62
2023/04/14 08:12:06;;;;;;;;;;;8.80;99.90;;;;;;5007896;28;19925;-59
2023/04/14 08:14:31;;;;;;;;;;;8.90;99.90;;;;;;5003909;28;19914;-58
2023/04/14 08:16:57;;;;;;;;;;;8.90;99.90;;;;;;5007951;28;20663;-61
2023/04/14 08:19:22;;;;;;;;;;;9.10;99.90;;;;;;5005593;28;20384;-57
2023/04/14 08:21:48;;;;;;;;;;;9.10;99.90;;;;;;4999114;28;19925;-61
2023/04/14 08:24:13;;;;;;;;;;;9.20;99.90;;;;;;5003548;28;19920;-60
2023/04/14 08:26:40;;;;;;;;;;;9.30;99.90;;;;;;5007642;28;19960;-61
2023/04/14 08:29:06;;;;;;;;;;;9.40;99.90;;;;;;5007118;28;20343;-59
2023/04/14 08:31:32;;;;;;;;;;;9.60;99.90;;;;;;5007437;28;19963;-58
2023/04/14 08:33:57;;;;;;;;;;;9.70;99.90;;;;;;5004994;28;19917;-61
2023/04/14 08:36:23;;;;;;;;;;;9.80;99.90;;;;;;5003845;28;19914;-59
2023/04/14 08:38:49;;;;;;;;;;;9.80;99.90;;;;;;5005263;28;19920;-59
2023/04/14 08:41:17;;;;;;;;;;;9.90;99.90;;;;;;5004141;28;19917;-59
2023/04/14 08:43:43;;;;;;;;;;;9.90;99.90;;;;;;5008139;28;19913;-59
2023/04/14 08:46:10;;;;;;;;;;;10.10;99.90;;;;;;5006333;28;19913;-58
2023/04/14 08:48:37;;;;;;;;;;;10.20;99.90;;;;;;5005602;28;20340;-58
2023/04/14 08:51:07;;;;;;;;;;;10.40;99.90;;;;;;5004924;28;19987;-60
2023/04/14 08:53:33;;;;;;;;;;;10.40;99.90;;;;;;5004437;28;20004;-60
2023/04/14 08:56:01;;;;;;;;;;;10.50;99.90;;;;;;5006734;28;19914;-60
2023/04/14 08:58:27;;;;;;;;;;;10.70;99.90;;;;;;5004548;28;19987;-60
2023/04/14 09:00:53;;;;;;;;;;;10.80;99.90;;;;;;5005915;28;19920;-60
2023/04/14 09:03:19;;;;;;;;;;;10.90;99.90;;;;;;5005380;28;19914;-60
2023/04/14 09:05:45;;;;;;;;;;;11.00;99.90;;;;;;5007407;28;19913;-61
2023/04/14 09:08:10;;;;;;;;;;;11.20;99.90;;;;;;5006911;28;19922;-59
2023/04/14 09:10:37;;;;;;;;;;;11.30;99.90;;;;;;5003868;28;19940;-60
2023/04/14 09:13:03;;;;;;;;;;;11.40;99.90;;;;;;5006277;28;19920;-61
2023/04/14 09:15:29;;;;;;;;;;;11.60;99.90;;;;;;5007037;28;19966;-61
2023/04/14 09:17:55;;;;;;;;;;;11.70;99.90;;;;;;5007770;28;20004;-61
2023/04/14 09:20:21;;;;;;;;;;;11.90;99.90;;;;;;5005497;28;20008;-61
2023/04/14 09:22:46;;;;;;;;;;;12.00;99.90;;;;;;5003572;28;19921;-60
2023/04/14 09:25:12;;;;;;;;;;;12.10;99.90;;;;;;5001979;28;20554;-61
2023/04/14 09:27:37;;;;;;;;;;;12.10;99.90;;;;;;4998935;28;20012;-61
2023/04/14 09:30:04;;;;;;;;;;;12.20;99.90;;;;;;5009160;28;20303;-61
2023/04/14 09:32:29;;;;;;;;;;;12.30;99.90;;;;;;5003558;28;19963;-60
2023/04/14 09:34:56;;;;;;;;;;;12.50;99.90;;;;;;5001419;28;19987;-61
2023/04/14 09:37:21;;;;;;;;;;;12.60;99.90;;;;;;5003646;28;19921;-60
2023/04/14 09:39:49;;;;;;;;;;;12.80;99.90;;;;;;5005962;28;19922;-61
2023/04/14 09:42:16;;;;;;;;;;;12.90;99.90;;;;;;5003406;28;19932;-61
2023/04/14 09:44:51;;;;;;;;;;;13.00;99.90;;;;;;5010798;28;19910;-61
2023/04/14 09:47:18;;;;;;;;;;;13.30;99.90;;;;;;5004802;28;19918;-61
2023/04/14 09:49:54;;;;;;;;;;;13.40;99.90;;;;;;5013410;28;19914;-61
2023/04/14 09:52:20;;;;;;;;;;;13.60;99.90;;;;;;5012240;28;19917;-61
2023/04/14 09:54:45;;;;;;;;;;;13.70;99.90;;;;;;5012151;28;19925;-62
2023/04/14 09:57:11;;;;;;;;;;;13.80;99.90;;;;;;5010491;28;19913;-61
2023/04/14 09:59:37;;;;;;;;;;;14.00;99.90;;;;;;5004469;28;19953;-62
2023/04/14 10:02:04;;;;;;;;;;;14.20;99.90;;;;;;5007885;28;19989;-61
2023/04/14 10:04:30;;;;;;;;;;;14.40;99.90;;;;;;5008462;28;19917;-62
2023/04/14 10:06:57;;;;;;;;;;;14.50;99.90;;;;;;5007778;28;19965;-61
2023/04/14 10:09:23;;;;;;;;;;;14.60;99.90;;;;;;5011691;28;19921;-60
2023/04/14 10:12:27;;;;;;;;;;;14.70;99.90;;;;;;5012892;28;20346;-61
2023/04/14 10:14:53;;;;;;;;;;;14.70;99.90;;;;;;5009481;28;19914;-62
2023/04/14 10:17:19;;;;;;;;;;;15.10;99.90;;;;;;5007409;28;19929;-62
2023/04/14 10:19:44;;;;;;;;;;;15.30;99.90;;;;;;5003723;28;20481;-62
2023/04/14 10:22:10;;;;;;;;;;;15.50;99.90;;;;;;5007228;28;19925;-62
2023/04/14 10:24:36;;;;;;;;;;;15.40;99.90;;;;;;5003161;28;19956;-62
2023/04/14 10:27:02;;;;;;;;;;;15.60;99.90;;;;;;5011396;28;20658;-61
2023/04/14 10:29:28;;;;;;;;;;;15.70;99.90;;;;;;5008139;28;19996;-62
2023/04/14 10:31:59;;;;;;;;;;;15.90;99.90;;;;;;5006697;28;19918;-62
2023/04/14 10:34:25;;;;;;;;;;;16.00;99.90;;;;;;5005591;28;20435;-61
2023/04/14 10:36:51;;;;;;;;;;;16.20;99.90;;;;;;5002697;28;19916;-60
2023/04/14 10:39:21;;;;;;;;;;;16.40;99.90;;;;;;5001070;28;20008;-61
2023/04/14 10:41:48;;;;;;;;;;;16.50;99.90;;;;;;5005905;28;19923;-61
2023/04/14 10:44:30;;;;;;;;;;;16.40;99.80;;;;;;5007984;28;20427;-61
2023/04/14 10:46:56;;;;;;;;;;;16.50;99.90;;;;;;5010907;28;19913;-62
2023/04/14 10:49:28;;;;;;;;;;;16.10;99.90;;;;;;5006432;28;19920;-61
2023/04/14 10:51:53;;;;;;;;;;;16.20;99.80;;;;;;5007098;28;19921;-62
2023/04/14 10:54:19;;;;;;;;;;;16.30;97.90;;;;;;5005649;28;19913;-61
2023/04/14 10:57:03;;;;;;;;;;;16.60;97.70;;;;;;5008462;28;20443;-62
2023/04/14 10:59:28;;;;;;;;;;;16.90;97.00;;;;;;5007730;28;19917;-62
2023/04/14 11:01:55;;;;;;;;;;;17.30;94.60;;;;;;5007358;28;19967;-61
2023/04/14 11:04:22;;;;;;;;;;;16.90;90.00;;;;;;5005873;28;19917;-62
2023/04/14 11:06:52;;;;;;;;;;;16.70;91.30;;;;;;5004360;28;20339;-61
2023/04/14 11:09:24;;;;;;;;;;;17.10;93.70;;;;;;5004927;28;19917;-61
2023/04/14 11:11:51;;;;;;;;;;;17.20;93.00;;;;;;5008648;28;19924;-61
2023/04/14 11:14:17;;;;;;;;;;;17.20;92.10;;;;;;5008766;28;19913;-62
2023/04/14 11:16:43;;;;;;;;;;;17.40;91.20;;;;;;5002536;28;19922;-58
2023/04/14 11:19:13;;;;;;;;;;;17.30;89.00;;;;;;5005146;28;20326;-61
2023/04/14 11:21:52;;;;;;;;;;;17.20;90.40;;;;;;5007745;28;19921;-61
2023/04/14 11:24:21;;;;;;;;;;;17.20;86.20;;;;;;5007691;28;19968;-61
2023/04/14 11:26:47;;;;;;;;;;;17.60;87.60;;;;;;5010278;28;20059;-62
2023/04/14 11:29:12;;;;;;;;;;;17.80;91.90;;;;;;5002794;28;20016;-62
2023/04/14 11:31:37;;;;;;;;;;;18.30;89.10;;;;;;5002921;28;19918;-61
2023/04/14 11:34:05;;;;;;;;;;;17.90;89.60;;;;;;5005237;28;19913;-60
2023/04/14 11:36:31;;;;;;;;;;;18.00;90.40;;;;;;5006279;28;19945;-61
2023/04/14 11:38:58;;;;;;;;;;;17.70;89.00;;;;;;5007765;28;19943;-62
2023/04/14 11:41:24;;;;;;;;;;;17.90;90.30;;;;;;5005531;28;19928;-61
2023/04/14 11:43:50;;;;;;;;;;;18.10;87.20;;;;;;5006840;28;19918;-62
2023/04/14 11:46:18;;;;;;;;;;;18.10;85.60;;;;;;5009243;28;20375;-62
2023/04/14 11:48:44;;;;;;;;;;;17.70;81.00;;;;;;5004410;28;19946;-61
2023/04/14 11:51:10;;;;;;;;;;;17.40;80.70;;;;;;5007891;28;19921;-61
2023/04/14 11:53:38;;;;;;;;;;;17.40;80.50;;;;;;5002044;28;19972;-62
2023/04/14 11:56:05;;;;;;;;;;;17.40;81.90;;;;;;5004096;28;19922;-62
2023/04/14 11:58:30;;;;;;;;;;;17.60;78.10;;;;;;5006858;28;19917;-62
2023/04/14 12:00:56;;;;;;;;;;;18.00;84.60;;;;;;5004892;28;20384;-63
2023/04/14 12:03:26;;;;;;;;;;;18.40;80.10;;;;;;5006347;28;19920;-62
2023/04/14 12:05:55;;;;;;;;;;;18.30;73.30;;;;;;5006548;28;19917;-62
2023/04/14 12:08:22;;;;;;;;;;;18.20;79.30;;;;;;5005519;28;19991;-61
2023/04/14 12:10:48;;;;;;;;;;;18.00;80.40;;;;;;5003638;28;19968;-62
2023/04/14 12:13:14;;;;;;;;;;;18.30;78.50;;;;;;4999229;28;20306;-61
2023/04/14 12:15:40;;;;;;;;;;;18.50;79.20;;;;;;5005047;28;19918;-62
2023/04/14 12:18:07;;;;;;;;;;;18.30;75.80;;;;;;5000856;28;19917;-62
2023/04/14 12:20:40;;;;;;;;;;;18.30;75.70;;;;;;4998797;28;20665;-61
2023/04/14 12:23:06;;;;;;;;;;;18.30;77.30;;;;;;5004429;28;19914;-60
2023/04/14 12:25:32;;;;;;;;;;;18.90;77.40;;;;;;5007633;28;19913;-61
2023/04/14 12:27:57;;;;;;;;;;;19.30;76.50;;;;;;4999827;28;19964;-62
2023/04/14 12:30:24;;;;;;;;;;;19.20;79.70;;;;;;5005096;28;20040;-60
2023/04/14 12:32:49;;;;;;;;;;;19.20;80.70;;;;;;5004380;28;19933;-61
2023/04/14 12:35:20;;;;;;;;;;;19.50;78.60;;;;;;4999789;28;19913;-62
2023/04/14 12:37:46;;;;;;;;;;;19.40;77.40;;;;;;4998464;28;19914;-60
2023/04/14 12:40:12;;;;;;;;;;;19.80;72.90;;;;;;4999339;28;19924;-62
2023/04/14 12:42:47;;;;;;;;;;;18.90;73.80;;;;;;4998430;28;19914;-62
2023/04/14 12:45:15;;;;;;;;;;;18.50;74.90;;;;;;5003461;28;19913;-61
2023/04/14 12:47:49;;;;;;;;;;;18.40;72.00;;;;;;5008744;28;19996;-62
2023/04/14 12:50:27;;;;;;;;;;;18.30;73.80;;;;;;5007767;28;19928;-61
2023/04/14 12:52:53;;;;;;;;;;;18.10;75.50;;;;;;5006019;28;19960;-61
2023/04/14 12:55:19;;;;;;;;;;;18.60;77.30;;;;;;5008064;28;19917;-61
2023/04/14 12:57:45;;;;;;;;;;;19.10;73.80;;;;;;5007028;28;19914;-62
2023/04/14 13:00:11;;;;;;;;;;;19.20;74.60;;;;;;5010237;28;20257;-62
2023/04/14 13:02:36;;;;;;;;;;;19.50;75.30;;;;;;5009173;28;20488;-61
2023/04/14 13:05:03;;;;;;;;;;;19.60;72.30;;;;;;5003289;28;19921;-62
2023/04/14 13:07:29;;;;;;;;;;;19.40;70.90;;;;;;5006988;28;20395;-61
2023/04/14 13:09:55;;;;;;;;;;;19.30;74.70;;;;;;5008115;28;19913;-58
2023/04/14 13:12:21;;;;;;;;;;;19.20;75.40;;;;;;5006373;28;20006;-62
2023/04/14 13:14:46;;;;;;;;;;;19.70;67.00;;;;;;5007389;28;19924;-60
2023/04/14 13:17:12;;;;;;;;;;;19.50;69.60;;;;;;5006905;28;20008;-62
2023/04/14 13:19:37;;;;;;;;;;;19.70;68.30;;;;;;5002361;28;19917;-61
2023/04/14 13:22:02;;;;;;;;;;;19.90;68.30;;;;;;4999269;28;19996;-61
2023/04/14 13:24:28;;;;;;;;;;;20.10;61.00;;;;;;5003079;28;20015;-61
2023/04/14 13:26:53;;;;;;;;;;;19.60;60.50;;;;;;5009460;28;19920;-61
2023/04/14 13:29:19;;;;;;;;;;;18.30;67.70;;;;;;5007727;28;19921;-61
2023/04/14 13:31:44;;;;;;;;;;;17.60;68.10;;;;;;5013022;28;19914;-61
2023/04/14 13:34:10;;;;;;;;;;;17.50;69.00;;;;;;5008563;28;19913;-61
2023/04/14 13:36:35;;;;;;;;;;;17.30;72.60;;;;;;5006588;28;19963;-61
2023/04/14 13:39:02;;;;;;;;;;;17.20;68.20;;;;;;5010199;28;19948;-62
2023/04/14 13:41:28;;;;;;;;;;;17.10;67.70;;;;;;5006801;28;19928;-59
2023/04/14 13:43:54;;;;;;;;;;;16.70;70.40;;;;;;5005970;28;19914;-61
2023/04/14 13:46:19;;;;;;;;;;;16.60;70.10;;;;;;5008732;28;19975;-61
2023/04/14 13:48:44;;;;;;;;;;;16.70;72.40;;;;;;5010750;28;20495;-62
2023/04/14 13:51:10;;;;;;;;;;;16.60;69.70;;;;;;5011522;28;19922;-61
2023/04/14 13:53:36;;;;;;;;;;;16.90;72.20;;;;;;5009189;28;19960;-61
2023/04/14 13:56:02;;;;;;;;;;;17.20;75.00;;;;;;5012206;28;19943;-61
2023/04/14 13:58:28;;;;;;;;;;;17.30;67.80;;;;;;5009012;28;19960;-62
2023/04/14 14:00:54;;;;;;;;;;;17.70;68.40;;;;;;5008790;28;20357;-62
2023/04/14 14:03:19;;;;;;;;;;;17.80;71.70;;;;;;5005612;28;20003;-57
2023/04/14 14:05:45;;;;;;;;;;;17.30;75.10;;;;;;5006987;28;20003;-63
2023/04/14 14:08:12;;;;;;;;;;;17.10;69.30;;;;;;5007214;28;19917;-61
2023/04/14 14:10:37;;;;;;;;;;;17.00;64.80;;;;;;5007123;28;19921;-61
2023/04/14 14:13:03;;;;;;;;;;;17.10;64.20;;;;;;5009337;28;19918;-61
2023/04/14 14:15:29;;;;;;;;;;;17.10;64.90;;;;;;5010199;28;19914;-62
2023/04/14 14:17:54;;;;;;;;;;;17.00;70.20;;;;;;5008880;28;19921;-61
2023/04/14 14:20:19;;;;;;;;;;;17.00;70.10;;;;;;5010442;28;19944;-62
2023/04/14 14:22:45;;;;;;;;;;;17.20;72.10;;;;;;5006291;28;19925;-61